This is the latest recevied weather packets stored in our database for station/object F4FEB-14. If no packets are shown the sender has not sent any weather packets the latest 10 day(s).
| Time | Temp. | Humidity | Pressure | Rain* | Wind** | Luminosity | Snow |
|---|---|---|---|---|---|---|---|
| 1777627215 | 22.78° C | 79% | 1025 hPa | 0 mm | - | - | - |
| 1777626914 | 22.78° C | 76% | 1025 hPa | 0 mm | - | - | - |
| 1777626312 | 22.22° C | 79% | 1024.9 hPa | 0 mm | - | - | - |
| 1777626011 | 22.22° C | 75% | 1024.9 hPa | 0 mm | - | - | - |
| 1777625709 | 21.67° C | 79% | 1024.9 hPa | 0 mm | - | - | - |
| 1777625408 | 21.67° C | 79% | 1024.9 hPa | 0 mm | - | - | - |
| 1777624804 | 21.67° C | 78% | 1024.9 hPa | 0 mm | - | - | - |
| 1777623900 | 21.67° C | 77% | 1025 hPa | 0 mm | - | - | - |
| 1777623298 | 20.56° C | 86% | 1024.8 hPa | 0 mm | - | - | - |
| 1777622996 | 20.56° C | 83% | 1025 hPa | 0 mm | - | - | - |
| 1777622695 | 21.11° C | 88% | 1025 hPa | 0 mm | - | - | - |
| 1777622092 | 20.56° C | 85% | 1024.9 hPa | 0 mm | - | - | - |
| 1777621791 | 19.44° C | 76% | 1025 hPa | 0 mm | - | - | - |
| 1777621489 | 18.89° C | 81% | 1024.9 hPa | 0 mm | - | - | - |
| 1777621188 | 18.89° C | 82% | 1025 hPa | 0 mm | - | - | - |
| 1777620887 | 18.89° C | 86% | 1024.9 hPa | 0 mm | - | - | - |
| 1777620586 | 17.78° C | 87% | 1025 hPa | 0 mm | - | - | - |
| 1777620285 | 17.78° C | 89% | 1024.9 hPa | 0 mm | - | - | - |
| 1777619985 | 17.78° C | 90% | 1024.8 hPa | 0 mm | - | - | - |
| 1777619683 | 17.78° C | 91% | 1024.9 hPa | 0 mm | - | - | - |
| 1777619382 | 17.22° C | 93% | 1024.8 hPa | 0 mm | - | - | - |
| 1777619082 | 17.22° C | 97% | 1024.8 hPa | 0 mm | - | - | - |
| 1777618780 | 16.67° C | 98% | 1024.8 hPa | 0 mm | - | - | - |
| 1777618479 | 16.11° C | 100% | 1024.8 hPa | 0 mm | - | - | - |
| 1777618177 | 15.56° C | 100% | 1024.7 hPa | 0 mm | - | - | - |
* Rain latest hour (hover to see other rain measurements)
** Current wind speed in m/s (hover to see current wind gust speed)